Time;durP1;ratioP1;P1;durP2;ratioP2;P2;SDS_P1;SDS_P2;PMS_P1;PMS_P2;Temp;Humidity;BMP_temperature;BMP_pressure;BME280_temperature;BME280_humidity;BME280_pressure;Samples;Min_cycle;Max_cycle;Signal;HPM_P1;HPM_P2
2024/04/18 00:02:03;;;;;;;2.40;2.20;;;4.20;99.90;;;;;;5348434;26;20276;-56
2024/04/18 00:04:29;;;;;;;2.03;1.93;;;4.20;99.90;;;;;;5359358;26;20354;-56
2024/04/18 00:07:01;;;;;;;2.50;2.13;;;4.10;99.90;;;;;;5328913;26;20250;-53
2024/04/18 00:09:27;;;;;;;2.40;2.13;;;4.10;99.90;;;;;;5323394;26;20250;-53
2024/04/18 00:11:56;;;;;;;3.37;1.93;;;4.00;99.90;;;;;;5361888;26;20886;-54
2024/04/18 00:14:44;;;;;;;2.27;1.90;;;4.00;99.90;;;;;;5341398;26;20978;-57
2024/04/18 00:17:19;;;;;;;2.20;2.00;;;4.00;99.90;;;;;;5348771;26;20233;-56
2024/04/18 00:19:44;;;;;;;3.20;2.30;;;4.10;99.90;;;;;;5361342;26;20736;-57
2024/04/18 00:22:32;;;;;;;1.90;1.40;;;4.00;99.90;;;;;;5363355;26;20237;-57
2024/04/18 00:25:06;;;;;;;1.93;1.83;;;4.00;99.90;;;;;;5318631;26;20304;-56
2024/04/18 00:27:53;;;;;;;1.77;1.63;;;4.00;99.90;;;;;;5357655;26;20297;-56
2024/04/18 00:30:41;;;;;;;2.57;1.57;;;4.00;99.90;;;;;;5337869;26;21051;-52
2024/04/18 00:33:09;;;;;;;1.43;1.33;;;4.00;99.90;;;;;;5358081;26;20299;-57
2024/04/18 00:35:41;;;;;;;2.40;1.57;;;3.90;99.90;;;;;;5362227;26;20246;-57
2024/04/18 00:38:09;;;;;;;1.50;1.40;;;3.80;99.90;;;;;;5324659;26;20253;-57
2024/04/18 00:40:42;;;;;;;2.37;1.60;;;3.80;99.90;;;;;;5327407;26;20815;-53
2024/04/18 00:43:17;;;;;;;1.63;1.43;;;3.70;99.90;;;;;;5347727;26;20237;-56
2024/04/18 00:45:49;;;;;;;2.30;1.80;;;3.70;99.90;;;;;;5346009;26;20238;-55
2024/04/18 00:48:21;;;;;;;1.83;1.70;;;3.60;99.90;;;;;;5360896;26;20396;-53
2024/04/18 00:50:49;;;;;;;1.93;1.77;;;3.60;99.90;;;;;;5363219;26;20687;-56
2024/04/18 00:53:19;;;;;;;1.50;1.40;;;3.60;99.90;;;;;;5359512;26;21173;-50
2024/04/18 00:55:52;;;;;;;2.17;1.70;;;3.50;99.90;;;;;;5314765;26;20588;-56
2024/04/18 00:58:38;;;;;;;2.10;1.70;;;3.50;99.90;;;;;;5351089;26;20276;-50
2024/04/18 01:01:25;;;;;;;2.83;1.73;;;3.50;99.90;;;;;;5349165;26;23317;-52
2024/04/18 01:03:55;;;;;;;2.27;1.70;;;3.60;99.90;;;;;;5360765;26;20292;-55
2024/04/18 01:06:40;;;;;;;2.23;2.00;;;3.60;99.90;;;;;;5361992;26;20280;-54
2024/04/18 01:09:16;;;;;;;3.23;1.97;;;3.60;99.90;;;;;;5350019;26;20296;-54
2024/04/18 01:12:03;;;;;;;1.70;1.60;;;3.60;99.90;;;;;;5305044;26;20486;-57
2024/04/18 01:14:29;;;;;;;2.00;1.50;;;3.60;99.90;;;;;;5361820;26;20234;-56
2024/04/18 01:17:07;;;;;;;2.17;1.90;;;3.50;99.90;;;;;;5346943;26;20281;-58
2024/04/18 01:19:33;;;;;;;2.50;2.30;;;3.50;99.90;;;;;;5362732;26;20245;-56
2024/04/18 01:22:02;;;;;;;2.30;2.00;;;3.40;99.90;;;;;;5355877;26;20238;-57
2024/04/18 01:24:29;;;;;;;2.20;2.00;;;3.40;99.90;;;;;;5349600;26;20272;-50
2024/04/18 01:27:00;;;;;;;2.13;1.80;;;3.40;99.90;;;;;;5313644;26;20328;-52
2024/04/18 01:29:41;;;;;;;4.03;2.00;;;3.30;99.90;;;;;;5362252;26;20237;-50
2024/04/18 01:32:30;;;;;;;2.40;2.20;;;3.30;99.90;;;;;;5349290;26;20319;-48
2024/04/18 01:34:57;;;;;;;4.30;1.70;;;3.20;99.90;;;;;;5360369;26;20272;-52
2024/04/18 01:37:26;;;;;;;3.17;2.13;;;3.10;99.90;;;;;;5354068;26;20335;-51
2024/04/18 01:39:51;;;;;;;4.37;1.90;;;3.20;99.90;;;;;;5347529;26;20330;-56
2024/04/18 01:42:22;;;;;;;2.20;1.70;;;3.10;99.90;;;;;;5317593;26;20394;-56
2024/04/18 01:44:49;;;;;;;1.73;1.63;;;3.10;99.90;;;;;;5365052;26;20238;-55
2024/04/18 01:47:36;;;;;;;1.70;1.60;;;3.20;99.90;;;;;;5355110;26;20292;-48
2024/04/18 01:50:08;;;;;;;1.90;1.80;;;3.10;99.90;;;;;;5351802;26;20234;-50
2024/04/18 01:52:38;;;;;;;2.40;1.90;;;3.10;99.90;;;;;;5343282;26;20323;-51
2024/04/18 01:55:05;;;;;;;3.13;2.00;;;3.00;99.90;;;;;;5347154;26;20238;-51
2024/04/18 01:57:42;;;;;;;2.30;2.10;;;3.00;99.90;;;;;;5364574;26;21247;-51
2024/04/18 02:00:27;;;;;;;2.07;1.63;;;3.00;99.90;;;;;;5356411;26;20331;-48
2024/04/18 02:02:56;;;;;;;2.87;2.10;;;2.90;99.90;;;;;;5352998;26;20254;-54
2024/04/18 02:05:40;;;;;;;1.80;1.70;;;2.90;99.90;;;;;;5324702;26;20229;-60
2024/04/18 02:08:18;;;;;;;2.00;1.80;;;2.90;99.90;;;;;;5351196;26;20276;-58
2024/04/18 02:10:45;;;;;;;2.30;1.90;;;2.90;99.90;;;;;;5365640;26;20272;-57
2024/04/18 02:13:36;;;;;;;2.53;2.13;;;2.90;99.90;;;;;;5325395;26;20309;-57
2024/04/18 02:16:03;;;;;;;2.43;2.23;;;2.90;99.90;;;;;;5356605;26;20242;-56
2024/04/18 02:18:48;;;;;;;2.30;2.00;;;2.90;99.90;;;;;;5346818;26;20238;-55
2024/04/18 02:21:14;;;;;;;2.33;2.13;;;2.80;99.90;;;;;;5348701;26;20276;-56
2024/04/18 02:24:09;;;;;;;3.07;2.37;;;2.70;99.90;;;;;;5348335;26;20272;-46
2024/04/18 02:26:35;;;;;;;3.17;2.13;;;2.70;99.90;;;;;;5352738;26;20316;-50
2024/04/18 02:29:07;;;;;;;3.10;2.80;;;2.70;99.90;;;;;;5322630;26;20363;-49
2024/04/18 02:31:46;;;;;;;2.53;2.33;;;2.60;99.90;;;;;;5358399;26;20237;-55
2024/04/18 02:34:32;;;;;;;2.67;2.47;;;2.50;99.90;;;;;;5340538;26;20763;-54
2024/04/18 02:37:18;;;;;;;4.37;2.10;;;2.50;99.90;;;;;;5358384;26;20309;-51
2024/04/18 02:39:46;;;;;;;3.37;2.50;;;2.50;99.90;;;;;;5363927;26;20234;-56
2024/04/18 02:42:24;;;;;;;2.17;2.07;;;2.60;99.90;;;;;;5365573;26;20237;-49
2024/04/18 02:45:01;;;;;;;4.90;2.60;;;2.60;99.90;;;;;;5322559;26;20246;-54
2024/04/18 02:47:47;;;;;;;2.17;2.07;;;2.60;99.90;;;;;;5350418;26;20339;-54
2024/04/18 02:50:36;;;;;;;2.47;2.23;;;2.60;99.90;;;;;;5346836;26;20284;-50
2024/04/18 02:53:01;;;;;;;3.60;2.53;;;2.50;99.90;;;;;;5359592;26;20269;-48
2024/04/18 02:55:30;;;;;;;2.80;2.03;;;2.50;99.90;;;;;;5364199;26;20237;-48
2024/04/18 02:57:56;;;;;;;2.40;2.20;;;2.40;99.90;;;;;;5359612;26;20242;-56
2024/04/18 03:00:27;;;;;;;3.03;2.30;;;2.40;99.90;;;;;;5320252;26;20316;-51
2024/04/18 03:03:08;;;;;;;2.40;2.20;;;2.30;99.90;;;;;;5348542;26;20462;-55
2024/04/18 03:06:03;;;;;;;3.20;2.90;;;2.30;99.90;;;;;;5347860;26;20230;-56
2024/04/18 03:08:29;;;;;;;3.10;2.80;;;2.30;99.90;;;;;;5364424;26;20245;-51
2024/04/18 03:11:17;;;;;;;3.80;3.03;;;2.40;99.90;;;;;;5363019;26;20423;-54
2024/04/18 03:14:01;;;;;;;3.73;3.40;;;2.30;99.90;;;;;;5355026;26;20474;-54
2024/04/18 03:16:35;;;;;;;5.23;3.43;;;2.30;99.90;;;;;;5312395;26;20331;-52
2024/04/18 03:19:17;;;;;;;4.13;3.50;;;2.20;99.90;;;;;;5362111;26;21162;-51
2024/04/18 03:21:54;;;;;;;3.83;3.00;;;2.20;99.90;;;;;;5348312;26;20296;-56
2024/04/18 03:24:21;;;;;;;3.07;2.77;;;2.20;99.90;;;;;;5365303;26;20230;-53
2024/04/18 03:26:53;;;;;;;3.70;3.20;;;2.20;99.90;;;;;;5361530;26;20297;-57
2024/04/18 03:29:18;;;;;;;4.70;3.53;;;2.10;99.90;;;;;;5349616;26;20230;-51
2024/04/18 03:32:02;;;;;;;5.17;3.17;;;2.10;99.90;;;;;;5312287;26;20237;-57
2024/04/18 03:34:42;;;;;;;5.67;3.60;;;2.20;99.90;;;;;;5356572;26;20238;-57
2024/04/18 03:37:11;;;;;;;4.17;3.77;;;2.20;99.90;;;;;;5352903;26;20499;-50
2024/04/18 03:39:39;;;;;;;4.50;3.30;;;2.20;99.90;;;;;;5363472;26;20276;-53
2024/04/18 03:42:08;;;;;;;2.90;2.70;;;2.20;99.90;;;;;;5348213;26;20250;-57
2024/04/18 03:44:57;;;;;;;4.43;3.13;;;2.20;99.90;;;;;;5346760;26;20237;-57
2024/04/18 03:47:28;;;;;;;3.63;2.80;;;2.10;99.90;;;;;;5315926;26;20327;-59
2024/04/18 03:50:12;;;;;;;3.23;2.93;;;2.10;99.90;;;;;;5355831;26;20310;-57
2024/04/18 03:52:38;;;;;;;3.90;3.60;;;2.10;99.90;;;;;;5322349;26;20246;-56
2024/04/18 03:55:25;;;;;;;5.60;2.87;;;2.10;99.90;;;;;;5354332;26;20312;-58
2024/04/18 03:57:51;;;;;;;5.73;3.43;;;1.90;99.90;;;;;;5351134;26;20335;-58
2024/04/18 04:00:40;;;;;;;3.43;3.13;;;1.90;99.90;;;;;;5356862;26;20233;-57
2024/04/18 04:03:08;;;;;;;3.80;3.20;;;1.80;99.90;;;;;;5365090;26;20238;-58
2024/04/18 04:05:37;;;;;;;4.53;3.20;;;1.90;99.90;;;;;;5288985;26;21124;-60
2024/04/18 04:08:05;;;;;;;4.20;3.63;;;1.90;99.90;;;;;;5346504;26;20292;-60
2024/04/18 04:10:43;;;;;;;3.30;3.00;;;2.00;99.90;;;;;;5344367;26;21890;-54
2024/04/18 04:13:09;;;;;;;3.40;3.10;;;2.00;99.90;;;;;;5355068;26;20293;-58
2024/04/18 04:15:44;;;;;;;3.30;3.00;;;2.00;99.90;;;;;;5360074;26;20376;-59
2024/04/18 04:18:12;;;;;;;4.07;3.43;;;2.00;99.90;;;;;;5366680;26;20234;-61
2024/04/18 04:20:44;;;;;;;3.97;3.27;;;1.90;99.90;;;;;;5320837;26;20253;-62
2024/04/18 04:23:09;;;;;;;3.30;2.70;;;1.90;99.90;;;;;;5351248;26;20234;-62
2024/04/18 04:25:57;;;;;;;3.93;3.27;;;1.90;99.90;;;;;;5339200;26;20276;-54
2024/04/18 04:28:23;;;;;;;5.00;3.33;;;1.90;99.90;;;;;;5355056;26;20326;-46
2024/04/18 04:30:51;;;;;;;4.57;3.53;;;1.90;99.90;;;;;;5360405;26;20242;-51
2024/04/18 04:33:20;;;;;;;3.37;3.07;;;1.90;99.90;;;;;;5343808;26;20370;-49
2024/04/18 04:35:48;;;;;;;4.47;2.90;;;1.90;99.90;;;;;;5307585;26;20242;-47
2024/04/18 04:38:14;;;;;;;3.67;3.07;;;1.80;99.90;;;;;;5324835;26;20241;-48
2024/04/18 04:40:43;;;;;;;3.17;2.93;;;1.70;99.90;;;;;;5331531;26;20234;-44
2024/04/18 04:43:08;;;;;;;3.90;3.57;;;1.70;99.90;;;;;;5345640;26;20241;-50
2024/04/18 04:45:37;;;;;;;3.03;2.73;;;1.70;99.90;;;;;;5356789;26;20288;-48
2024/04/18 04:48:05;;;;;;;3.03;2.77;;;1.70;99.90;;;;;;5361298;26;20269;-49
2024/04/18 04:50:40;;;;;;;3.50;3.20;;;1.70;99.90;;;;;;5329803;26;20780;-45
2024/04/18 04:53:11;;;;;;;3.23;2.93;;;1.80;99.90;;;;;;5333986;26;20237;-48
2024/04/18 04:55:59;;;;;;;3.17;2.60;;;1.80;99.90;;;;;;5344016;26;20363;-49
2024/04/18 04:58:25;;;;;;;4.07;3.13;;;1.80;99.90;;;;;;5363373;26;22034;-48
2024/04/18 05:00:55;;;;;;;5.43;3.10;;;1.80;99.90;;;;;;5342678;26;20284;-51
2024/04/18 05:03:36;;;;;;;4.40;3.00;;;1.70;99.90;;;;;;5357541;26;20253;-48
2024/04/18 05:06:26;;;;;;;3.53;2.73;;;1.80;99.90;;;;;;5306305;26;20324;-47
2024/04/18 05:09:11;;;;;;;3.67;3.37;;;1.80;99.90;;;;;;5345174;26;20347;-52
2024/04/18 05:11:39;;;;;;;4.60;3.70;;;1.90;99.90;;;;;;5351778;26;20572;-48
2024/04/18 05:14:26;;;;;;;3.73;2.90;;;1.90;99.90;;;;;;5358010;26;20284;-56
2024/04/18 05:16:55;;;;;;;6.40;3.50;;;2.00;99.90;;;;;;5347577;26;20241;-54
2024/04/18 05:19:23;;;;;;;4.67;3.67;;;2.00;99.90;;;;;;5359690;26;20230;-56
2024/04/18 05:21:51;;;;;;;4.07;3.67;;;2.00;99.90;;;;;;5307573;26;20257;-56
2024/04/18 05:24:35;;;;;;;4.50;3.27;;;2.00;99.90;;;;;;5353164;26;20246;-56
2024/04/18 05:27:02;;;;;;;5.57;3.93;;;2.00;99.90;;;;;;5355514;26;20317;-49
2024/04/18 05:32:14;;;;;;;4.67;4.07;;;2.20;99.90;;;;;;5353659;26;20250;-54
2024/04/18 05:35:04;;;;;;;5.40;3.80;;;2.20;99.90;;;;;;5336191;26;21126;-52
2024/04/18 05:37:35;;;;;;;5.83;4.70;;;2.30;99.90;;;;;;5303950;26;20253;-55
2024/04/18 05:40:04;;;;;;;5.93;4.13;;;2.40;99.90;;;;;;5348692;26;20234;-51
2024/04/18 05:42:32;;;;;;;6.97;4.23;;;2.50;99.90;;;;;;5326521;26;20246;-52
2024/04/18 05:45:10;;;;;;;9.33;4.97;;;2.60;99.90;;;;;;5362507;26;20484;-54
2024/04/18 05:48:02;;;;;;;11.18;8.88;;;2.60;99.90;;;;;;5327839;26;20963;-55
2024/04/18 05:50:31;;;;;;;9.17;7.67;;;2.90;99.90;;;;;;5355842;26;20281;-54
2024/04/18 05:53:02;;;;;;;7.87;7.03;;;3.00;99.90;;;;;;5310493;26;20775;-55
2024/04/18 05:55:51;;;;;;;11.10;7.83;;;3.10;99.90;;;;;;5346327;26;20302;-54
2024/04/18 05:58:20;;;;;;;10.87;7.77;;;3.10;99.90;;;;;;5324114;26;20288;-55
2024/04/18 06:00:59;;;;;;;13.03;8.40;;;3.20;99.90;;;;;;5335497;26;21122;-52
2024/04/18 06:03:28;;;;;;;13.20;9.17;;;3.40;99.90;;;;;;5333920;26;21156;-55
2024/04/18 06:05:59;;;;;;;14.10;10.07;;;3.50;99.90;;;;;;5361884;26;20237;-50
2024/04/18 06:08:30;;;;;;;15.10;10.07;;;3.60;99.90;;;;;;5303916;26;20253;-51
2024/04/18 06:10:59;;;;;;;14.70;10.23;;;3.70;99.90;;;;;;5354270;26;20277;-50
2024/04/18 06:13:28;;;;;;;14.10;10.13;;;3.80;99.90;;;;;;5348522;26;20230;-51
2024/04/18 06:15:58;;;;;;;17.20;10.87;;;3.90;99.90;;;;;;5352428;26;20238;-54
2024/04/18 06:18:29;;;;;;;15.73;10.30;;;4.00;99.90;;;;;;5336185;26;20238;-51
2024/04/18 06:20:57;;;;;;;15.53;11.70;;;4.20;99.90;;;;;;5368790;26;20242;-55
2024/04/18 06:23:26;;;;;;;14.53;10.53;;;4.30;99.90;;;;;;5311518;26;20235;-54
2024/04/18 06:26:16;;;;;;;15.00;10.50;;;4.40;99.90;;;;;;5316179;26;20284;-54
2024/04/18 06:28:45;;;;;;;13.53;10.30;;;4.50;99.90;;;;;;5336014;26;20317;-54
2024/04/18 06:31:16;;;;;;;11.43;8.97;;;4.60;99.90;;;;;;5343622;26;20242;-55
2024/04/18 06:33:45;;;;;;;11.53;8.80;;;4.60;99.90;;;;;;5354621;26;20230;-53
2024/04/18 06:36:13;;;;;;;15.73;10.93;;;4.70;99.90;;;;;;5354952;26;20238;-55
2024/04/18 06:38:42;;;;;;;12.47;9.77;;;4.80;99.90;;;;;;5351600;26;20245;-50
2024/04/18 06:41:11;;;;;;;14.43;9.50;;;4.90;99.90;;;;;;5281157;26;21154;-52
2024/04/18 06:43:45;;;;;;;11.70;8.90;;;5.00;99.90;;;;;;5328889;26;20242;-54
2024/04/18 06:46:14;;;;;;;13.17;9.27;;;5.00;99.90;;;;;;5344594;26;20281;-51
2024/04/18 06:48:43;;;;;;;11.73;9.13;;;5.10;99.90;;;;;;5328843;26;20298;-54
2024/04/18 06:51:12;;;;;;;11.23;9.13;;;5.20;99.90;;;;;;5345946;26;20317;-54
2024/04/18 06:53:40;;;;;;;12.70;7.60;;;5.30;99.90;;;;;;5351888;26;20246;-55
2024/04/18 06:56:09;;;;;;;11.20;7.80;;;5.40;99.90;;;;;;5311943;26;20270;-55
2024/04/18 06:58:38;;;;;;;9.17;6.97;;;5.50;99.90;;;;;;5342706;26;20246;-55
2024/04/18 07:01:10;;;;;;;8.17;6.73;;;5.60;99.90;;;;;;5320046;26;20901;-54
2024/04/18 07:03:58;;;;;;;10.37;6.87;;;5.70;99.90;;;;;;5354653;26;21098;-56
2024/04/18 07:06:31;;;;;;;9.10;6.77;;;5.80;99.90;;;;;;5352439;26;20284;-50
2024/04/18 07:09:06;;;;;;;8.30;6.40;;;5.90;99.90;;;;;;5343617;26;20230;-50
2024/04/18 07:11:41;;;;;;;8.33;6.03;;;6.00;99.90;;;;;;5309003;26;20295;-54
2024/04/18 07:14:10;;;;;;;6.93;6.23;;;6.10;99.90;;;;;;5342969;26;21128;-56
2024/04/18 07:16:41;;;;;;;8.63;6.07;;;6.10;99.90;;;;;;5352634;26;20238;-53
2024/04/18 07:19:31;;;;;;;7.90;5.60;;;6.30;99.90;;;;;;5362868;26;20342;-55
2024/04/18 07:21:57;;;;;;;9.27;5.40;;;6.40;99.90;;;;;;5345240;26;23780;-56
2024/04/18 07:24:26;;;;;;;7.10;5.80;;;6.40;99.90;;;;;;5346461;26;20291;-54
2024/04/18 07:26:54;;;;;;;7.63;5.30;;;6.50;99.90;;;;;;5307858;26;20291;-52
2024/04/18 07:29:23;;;;;;;6.30;4.90;;;6.50;99.90;;;;;;5351353;26;20237;-50
2024/04/18 07:31:55;;;;;;;6.67;5.03;;;6.60;99.90;;;;;;5349268;26;20297;-53
2024/04/18 07:34:24;;;;;;;5.47;4.97;;;6.70;99.90;;;;;;5365208;26;20241;-50
2024/04/18 07:36:52;;;;;;;5.70;4.63;;;6.80;99.90;;;;;;5328072;26;20609;-54
2024/04/18 07:39:19;;;;;;;8.37;4.10;;;6.90;99.90;;;;;;5331978;26;21082;-51
2024/04/18 07:41:50;;;;;;;4.80;4.30;;;7.00;99.90;;;;;;5331820;26;20763;-54
2024/04/18 07:44:19;;;;;;;8.80;4.20;;;7.00;99.90;;;;;;5337465;26;20288;-55
2024/04/18 07:46:48;;;;;;;5.43;4.60;;;7.10;99.90;;;;;;5347327;26;20716;-53
2024/04/18 07:49:16;;;;;;;7.07;4.63;;;7.30;99.90;;;;;;5362457;26;20237;-50
2024/04/18 07:51:45;;;;;;;4.83;3.77;;;7.40;99.90;;;;;;5353344;26;20230;-52
2024/04/18 07:54:14;;;;;;;4.60;4.20;;;7.50;99.90;;;;;;5332921;26;20238;-51
2024/04/18 07:56:44;;;;;;;6.77;4.30;;;7.60;99.90;;;;;;5349146;26;21051;-54
2024/04/18 07:59:13;;;;;;;7.57;3.33;;;7.80;99.90;;;;;;5338593;26;21153;-56
2024/04/18 08:01:42;;;;;;;4.70;4.10;;;7.80;99.90;;;;;;5351458;26;20309;-54
2024/04/18 08:04:11;;;;;;;4.50;3.83;;;8.00;99.90;;;;;;5358679;26;20238;-56
2024/04/18 08:06:42;;;;;;;5.97;4.23;;;8.00;99.90;;;;;;5350881;26;20230;-52
2024/04/18 08:09:11;;;;;;;11.47;4.83;;;8.00;99.90;;;;;;5334289;26;20234;-55
2024/04/18 08:11:39;;;;;;;11.07;4.20;;;8.20;99.90;;;;;;5363064;26;20253;-54
2024/04/18 08:14:08;;;;;;;10.20;3.90;;;8.30;99.90;;;;;;5290565;26;20250;-53
2024/04/18 08:16:37;;;;;;;4.50;3.77;;;8.20;99.90;;;;;;5350766;26;20672;-51
2024/04/18 08:19:06;;;;;;;7.03;3.90;;;8.20;99.90;;;;;;5356965;26;20865;-52
2024/04/18 08:21:34;;;;;;;4.90;3.57;;;8.10;99.90;;;;;;5315283;26;20264;-54
2024/04/18 08:24:08;;;;;;;3.70;3.10;;;8.10;99.90;;;;;;5344192;26;20234;-55
2024/04/18 08:26:36;;;;;;;5.63;3.63;;;8.20;99.90;;;;;;5329220;26;20233;-54
2024/04/18 08:29:05;;;;;;;3.97;2.70;;;8.40;99.90;;;;;;5298000;26;20277;-51
2024/04/18 08:31:36;;;;;;;4.93;2.60;;;8.60;99.90;;;;;;5343633;26;20254;-55
2024/04/18 08:34:05;;;;;;;5.33;3.17;;;8.60;99.90;;;;;;5348204;26;20230;-55
2024/04/18 08:36:32;;;;;;;7.87;3.47;;;8.80;99.90;;;;;;5353536;26;20266;-51
2024/04/18 08:39:00;;;;;;;4.70;3.53;;;8.90;99.90;;;;;;5349633;26;20342;-55
2024/04/18 08:41:32;;;;;;;5.40;3.97;;;9.00;99.90;;;;;;5361205;26;20241;-54
2024/04/18 08:44:03;;;;;;;8.53;5.37;;;9.00;99.90;;;;;;5321482;26;20783;-55
2024/04/18 08:46:33;;;;;;;11.50;6.00;;;9.10;99.90;;;;;;5345294;26;20372;-56
2024/04/18 08:49:05;;;;;;;5.37;4.87;;;9.30;99.90;;;;;;5348841;26;20242;-53
2024/04/18 08:51:35;;;;;;;7.63;4.67;;;9.40;99.90;;;;;;5358867;26;20376;-53
2024/04/18 08:54:04;;;;;;;4.20;3.80;;;9.50;99.90;;;;;;5358872;26;21077;-51
2024/04/18 08:56:37;;;;;;;6.10;3.43;;;9.60;99.90;;;;;;5353870;26;20288;-53
2024/04/18 08:59:06;;;;;;;5.87;3.80;;;9.70;99.90;;;;;;5315076;26;21895;-56
2024/04/18 09:01:34;;;;;;;6.07;3.70;;;9.80;99.90;;;;;;5360722;26;20284;-54
2024/04/18 09:04:03;;;;;;;4.93;3.90;;;9.80;99.90;;;;;;5334841;26;20249;-56
2024/04/18 09:06:32;;;;;;;3.43;2.60;;;10.00;99.90;;;;;;5366263;26;20234;-54
2024/04/18 09:09:04;;;;;;;2.60;2.13;;;9.90;99.90;;;;;;5361841;26;20285;-52
2024/04/18 09:11:35;;;;;;;2.50;2.30;;;9.70;99.90;;;;;;5352716;26;20306;-54
2024/04/18 09:14:04;;;;;;;3.37;2.90;;;9.70;99.90;;;;;;5314533;26;20382;-53
2024/04/18 09:16:32;;;;;;;6.47;2.60;;;9.70;99.90;;;;;;5351971;26;20343;-55
2024/04/18 09:19:01;;;;;;;4.63;3.23;;;9.80;99.90;;;;;;5313967;26;20242;-52
2024/04/18 09:21:32;;;;;;;3.40;3.10;;;9.90;99.90;;;;;;5367586;26;20304;-54
2024/04/18 09:24:01;;;;;;;5.97;2.37;;;10.00;99.90;;;;;;5361849;26;20709;-55
2024/04/18 09:26:29;;;;;;;6.93;3.20;;;10.00;99.90;;;;;;5349588;26;20239;-55
2024/04/18 09:29:01;;;;;;;6.07;2.80;;;10.10;99.90;;;;;;5356776;26;20277;-54
2024/04/18 09:31:31;;;;;;;4.80;2.50;;;10.20;99.90;;;;;;5312469;26;21046;-51
2024/04/18 09:34:00;;;;;;;2.33;2.03;;;10.10;99.90;;;;;;5354856;26;20242;-54
2024/04/18 09:36:28;;;;;;;3.77;2.43;;;9.90;99.90;;;;;;5366108;26;20335;-54
2024/04/18 09:39:02;;;;;;;3.10;2.43;;;9.80;99.90;;;;;;5363167;26;20371;-53
2024/04/18 09:41:36;;;;;;;3.87;2.70;;;9.70;99.90;;;;;;5350903;26;20238;-52
2024/04/18 09:44:17;;;;;;;3.83;2.40;;;9.60;99.90;;;;;;5348637;26;20658;-52
2024/04/18 09:46:46;;;;;;;5.73;2.50;;;9.60;99.90;;;;;;5315989;26;20771;-51
2024/04/18 09:49:15;;;;;;;3.87;2.27;;;9.60;99.90;;;;;;5350561;26;20249;-49
2024/04/18 09:51:45;;;;;;;3.27;2.33;;;9.60;99.90;;;;;;5366726;26;20238;-52
2024/04/18 09:54:15;;;;;;;3.13;2.13;;;9.70;99.90;;;;;;5362074;26;21189;-49
2024/04/18 09:56:46;;;;;;;3.00;2.27;;;9.90;99.90;;;;;;5328589;26;20301;-55
2024/04/18 09:59:18;;;;;;;2.23;2.03;;;10.00;99.90;;;;;;5349241;26;20230;-53
2024/04/18 10:01:48;;;;;;;2.10;2.00;;;10.20;99.90;;;;;;5319342;26;20254;-50
2024/04/18 10:04:17;;;;;;;2.77;2.57;;;10.30;99.90;;;;;;5356017;26;20654;-52
2024/04/18 10:06:50;;;;;;;3.43;2.10;;;10.30;99.90;;;;;;5359376;26;20242;-53
2024/04/18 10:09:23;;;;;;;2.27;1.70;;;10.50;99.90;;;;;;5344756;26;20250;-50
2024/04/18 10:11:52;;;;;;;3.00;2.20;;;10.60;99.90;;;;;;5336735;26;20245;-52
2024/04/18 10:14:24;;;;;;;2.83;2.50;;;10.60;99.90;;;;;;5348319;26;20771;-55
2024/04/18 10:16:52;;;;;;;4.10;2.60;;;10.60;99.90;;;;;;5305907;26;20230;-54
2024/04/18 10:19:22;;;;;;;2.70;2.50;;;10.60;99.90;;;;;;5365342;26;20285;-51
2024/04/18 10:21:58;;;;;;;3.80;2.60;;;10.70;99.90;;;;;;5350506;26;20250;-50
2024/04/18 10:24:35;;;;;;;3.20;2.67;;;10.80;99.90;;;;;;5359237;26;20230;-54
2024/04/18 10:27:08;;;;;;;2.73;1.97;;;10.90;99.90;;;;;;5338523;26;20241;-53
2024/04/18 10:29:40;;;;;;;4.13;2.47;;;11.00;99.90;;;;;;5362123;26;20264;-53
2024/04/18 10:32:10;;;;;;;3.60;2.83;;;11.20;99.90;;;;;;5315016;26;20257;-55
2024/04/18 10:34:39;;;;;;;2.97;2.27;;;11.30;99.90;;;;;;5362727;26;20301;-54
2024/04/18 10:37:09;;;;;;;2.60;2.17;;;11.20;99.90;;;;;;5356030;26;20360;-55
2024/04/18 10:39:39;;;;;;;4.33;1.83;;;11.20;99.90;;;;;;5351161;26;20276;-54
2024/04/18 10:42:10;;;;;;;1.30;1.20;;;11.20;99.90;;;;;;5357587;26;20302;-54
2024/04/18 10:44:41;;;;;;;2.03;1.50;;;11.10;99.90;;;;;;5356510;26;20615;-53
2024/04/18 10:47:10;;;;;;;1.70;1.60;;;11.10;99.90;;;;;;5311939;26;21852;-54
2024/04/18 10:49:40;;;;;;;2.50;1.87;;;11.10;99.90;;;;;;5364103;26;20234;-53
2024/04/18 10:52:10;;;;;;;1.60;1.50;;;11.10;99.90;;;;;;5345606;26;20272;-55
2024/04/18 10:54:39;;;;;;;1.57;1.30;;;11.00;99.90;;;;;;5349767;26;20327;-53
2024/04/18 10:57:08;;;;;;;2.07;1.00;;;11.00;99.90;;;;;;5358541;26;20335;-55
2024/04/18 10:59:43;;;;;;;3.67;1.50;;;10.80;99.90;;;;;;5356332;26;20313;-54
2024/04/18 11:02:13;;;;;;;1.40;1.30;;;10.90;99.90;;;;;;5354107;26;20249;-54
2024/04/18 11:04:41;;;;;;;1.63;1.40;;;10.90;99.90;;;;;;5320038;26;20296;-54
2024/04/18 11:07:10;;;;;;;2.27;1.20;;;10.90;99.90;;;;;;5340687;26;20278;-52
2024/04/18 11:09:40;;;;;;;2.77;1.60;;;10.90;99.90;;;;;;5355093;26;20276;-52
2024/04/18 11:12:10;;;;;;;2.90;1.33;;;10.80;99.90;;;;;;5363979;26;20234;-50
2024/04/18 11:14:41;;;;;;;2.50;1.13;;;10.90;99.90;;;;;;5355012;26;20296;-52
2024/04/18 11:17:10;;;;;;;1.17;0.90;;;11.00;99.90;;;;;;5355549;26;21247;-50
2024/04/18 11:19:39;;;;;;;1.13;0.90;;;11.10;99.90;;;;;;5317594;26;20281;-52
2024/04/18 11:22:05;;;;;;;1.03;0.63;;;11.00;99.90;;;;;;5342449;26;20259;-53
2024/04/18 11:24:36;;;;;;;2.30;0.80;;;11.10;99.90;;;;;;5364229;26;20759;-52
2024/04/18 11:27:06;;;;;;;2.43;0.47;;;11.20;99.90;;;;;;5358410;26;21148;-53
2024/04/18 11:29:35;;;;;;;0.53;0.53;;;11.30;99.90;;;;;;5360035;26;20316;-50
2024/04/18 11:32:12;;;;;;;2.63;0.70;;;11.20;99.90;;;;;;5351239;26;20470;-53
2024/04/18 11:34:42;;;;;;;3.07;0.67;;;11.00;99.90;;;;;;5327243;26;20284;-54
2024/04/18 11:37:11;;;;;;;1.33;0.60;;;10.90;99.90;;;;;;5333429;26;20249;-52
2024/04/18 11:39:41;;;;;;;1.43;0.73;;;10.80;99.90;;;;;;5362220;26;20237;-53
2024/04/18 11:42:09;;;;;;;0.57;0.57;;;10.80;99.90;;;;;;5350441;26;21154;-53
2024/04/18 11:44:38;;;;;;;1.93;0.90;;;10.90;99.90;;;;;;5355023;26;20238;-54
2024/04/18 11:47:09;;;;;;;2.43;0.43;;;11.00;99.90;;;;;;5350420;26;20276;-53
2024/04/18 11:49:38;;;;;;;0.80;0.40;;;10.90;99.90;;;;;;5328892;26;20313;-53
2024/04/18 11:52:07;;;;;;;5.30;1.07;;;10.90;99.90;;;;;;5339424;26;20316;-53
2024/04/18 11:54:35;;;;;;;2.80;1.10;;;10.90;99.90;;;;;;5353583;26;20591;-53
2024/04/18 11:57:04;;;;;;;1.83;0.70;;;11.00;99.90;;;;;;5355654;26;20241;-51
2024/04/18 11:59:33;;;;;;;0.60;0.60;;;11.20;99.90;;;;;;5364380;26;20354;-53
2024/04/18 12:02:01;;;;;;;0.93;0.70;;;11.60;99.90;;;;;;5338531;26;20258;-55
2024/04/18 12:04:33;;;;;;;4.67;0.63;;;11.80;99.90;;;;;;5346677;26;20576;-54
2024/04/18 12:07:17;;;;;;;1.13;0.90;;;11.80;99.90;;;;;;5323951;26;20260;-55
2024/04/18 12:09:50;;;;;;;1.70;0.90;;;11.60;99.90;;;;;;5351178;26;20237;-52
2024/04/18 12:12:20;;;;;;;1.60;0.50;;;11.40;99.90;;;;;;5363830;26;20293;-54
2024/04/18 12:14:49;;;;;;;1.90;0.40;;;10.80;99.90;;;;;;5353798;26;20238;-51
2024/04/18 12:17:27;;;;;;;1.83;0.90;;;10.50;99.90;;;;;;5342036;26;20268;-54
2024/04/18 12:20:19;;;;;;;3.80;0.80;;;10.50;99.90;;;;;;5356558;26;20306;-49
2024/04/18 12:22:47;;;;;;;1.17;0.70;;;10.40;99.90;;;;;;5323027;26;20329;-53
2024/04/18 12:25:17;;;;;;;1.37;0.50;;;10.30;99.90;;;;;;5353482;26;20238;-54
2024/04/18 12:27:46;;;;;;;2.17;0.90;;;10.20;99.90;;;;;;5356241;26;20297;-54
2024/04/18 12:30:33;;;;;;;1.30;0.60;;;10.20;99.90;;;;;;5351229;26;20280;-54
2024/04/18 12:33:20;;;;;;;2.10;0.50;;;10.30;99.90;;;;;;5322846;26;20276;-54
2024/04/18 12:35:51;;;;;;;1.90;0.50;;;10.20;99.90;;;;;;5348193;26;20308;-54
2024/04/18 12:38:19;;;;;;;1.00;0.50;;;10.30;99.90;;;;;;5320742;26;20317;-55
2024/04/18 12:40:48;;;;;;;0.87;0.40;;;10.50;99.90;;;;;;5343632;26;20813;-55
2024/04/18 12:43:18;;;;;;;2.13;0.70;;;10.60;99.90;;;;;;5356498;26;20276;-54
2024/04/18 12:45:55;;;;;;;1.37;0.30;;;10.70;99.90;;;;;;5319107;26;20288;-54
2024/04/18 12:48:44;;;;;;;1.30;0.53;;;10.80;99.90;;;;;;5354732;26;20347;-53
2024/04/18 12:51:15;;;;;;;1.30;0.80;;;10.90;99.90;;;;;;5352645;26;20978;-55
2024/04/18 12:53:43;;;;;;;1.67;0.70;;;11.00;99.90;;;;;;5321621;26;20917;-52
2024/04/18 12:56:12;;;;;;;3.37;0.70;;;11.10;99.90;;;;;;5347516;26;21197;-55
2024/04/18 12:58:43;;;;;;;2.63;1.30;;;11.10;99.90;;;;;;5349463;26;20293;-55
2024/04/18 13:01:12;;;;;;;1.60;0.70;;;11.00;99.90;;;;;;5350283;26;20242;-55
2024/04/18 13:03:41;;;;;;;4.57;1.00;;;11.00;99.90;;;;;;5356345;26;20747;-54
2024/04/18 13:06:31;;;;;;;0.87;0.80;;;11.10;99.90;;;;;;5359045;26;20284;-56
2024/04/18 13:09:00;;;;;;;1.80;0.90;;;11.30;99.90;;;;;;5318404;26;20296;-56
2024/04/18 13:11:46;;;;;;;4.20;0.90;;;11.40;99.90;;;;;;5342202;26;20762;-54
2024/04/18 13:14:15;;;;;;;1.43;0.60;;;11.40;99.90;;;;;;5353884;26;20230;-52
2024/04/18 13:16:43;;;;;;;2.30;1.00;;;11.40;99.90;;;;;;5349454;26;20342;-52
2024/04/18 13:19:12;;;;;;;6.13;1.30;;;11.50;99.90;;;;;;5352301;26;20249;-56
2024/04/18 13:21:43;;;;;;;4.50;0.73;;;11.40;99.90;;;;;;5346216;26;20589;-53
2024/04/18 13:24:13;;;;;;;2.23;1.13;;;11.60;99.90;;;;;;5299110;26;21253;-53